Time;durP1;ratioP1;P1;durP2;ratioP2;P2;SDS_P1;SDS_P2;PMS_P1;PMS_P2;Temp;Humidity;BMP_temperature;BMP_pressure;BME280_temperature;BME280_humidity;BME280_pressure;Samples;Min_cycle;Max_cycle;Signal;HPM_P1;HPM_P2
2022/03/02 00:02:18;;;;;;;38.13;23.87;;;8.00;99.90;;;;;;5011965;28;20167;-69
2022/03/02 00:04:44;;;;;;;42.57;25.17;;;8.10;99.90;;;;;;5011402;28;20711;-69
2022/03/02 00:07:09;;;;;;;44.67;25.30;;;8.20;99.90;;;;;;5011390;28;20174;-69
2022/03/02 00:09:35;;;;;;;40.80;24.67;;;8.20;99.90;;;;;;5011548;28;20533;-68
2022/03/02 00:12:01;;;;;;;40.10;24.77;;;8.30;99.90;;;;;;5010639;28;20666;-68
2022/03/02 00:14:26;;;;;;;44.60;25.27;;;8.30;99.90;;;;;;5011437;28;20175;-68
2022/03/02 00:16:52;;;;;;;40.50;25.40;;;8.40;99.90;;;;;;5011677;28;20194;-68
2022/03/02 00:19:18;;;;;;;45.33;26.97;;;8.50;99.90;;;;;;5011599;28;20167;-69
2022/03/02 00:21:44;;;;;;;46.70;24.70;;;8.50;99.90;;;;;;5011224;28;20502;-69
2022/03/02 00:24:09;;;;;;;82.93;30.53;;;8.60;99.90;;;;;;5011643;28;20186;-69
2022/03/02 00:26:35;;;;;;;71.37;29.03;;;8.60;99.90;;;;;;5011344;28;20638;-69
2022/03/02 00:29:01;;;;;;;58.20;27.13;;;8.70;99.90;;;;;;5011643;28;20216;-69
2022/03/02 00:31:28;;;;;;;48.60;25.60;;;8.60;99.90;;;;;;5011388;28;20167;-68
2022/03/02 00:33:54;;;;;;;43.23;24.00;;;8.60;99.90;;;;;;5011327;28;20214;-69
2022/03/02 00:36:20;;;;;;;43.33;25.23;;;8.50;99.90;;;;;;5010786;28;20263;-69
2022/03/02 00:38:46;;;;;;;56.47;26.87;;;8.60;99.90;;;;;;5011688;28;20605;-69
2022/03/02 00:41:11;;;;;;;51.17;25.87;;;8.60;99.90;;;;;;5011405;28;20171;-69
2022/03/02 00:43:37;;;;;;;49.87;25.20;;;8.60;99.90;;;;;;5011364;28;20576;-69
2022/03/02 00:46:03;;;;;;;43.20;26.23;;;8.60;99.90;;;;;;5011441;28;20213;-69
2022/03/02 00:48:29;;;;;;;38.70;24.87;;;8.70;99.90;;;;;;5011124;28;20626;-69
2022/03/02 00:50:54;;;;;;;43.43;25.17;;;8.70;99.90;;;;;;5095367;28;20202;-69
2022/03/02 00:53:20;;;;;;;37.33;25.20;;;8.70;99.90;;;;;;5078642;28;20231;-68
2022/03/02 00:55:46;;;;;;;37.37;25.87;;;8.60;99.90;;;;;;5010931;28;20521;-68
2022/03/02 00:58:11;;;;;;;41.60;24.93;;;8.60;99.90;;;;;;5011098;28;20174;-69
2022/03/02 01:00:37;;;;;;;38.83;25.43;;;8.40;99.90;;;;;;5011011;28;20175;-68
2022/03/02 01:03:03;;;;;;;48.90;26.47;;;8.40;99.90;;;;;;5011217;28;20171;-69
2022/03/02 01:05:29;;;;;;;44.50;26.07;;;8.30;99.90;;;;;;5010641;28;20179;-69
2022/03/02 01:07:54;;;;;;;49.83;27.37;;;8.20;99.90;;;;;;5011045;28;20175;-69
2022/03/02 01:10:21;;;;;;;43.30;25.93;;;8.10;99.90;;;;;;5010947;28;20189;-68
2022/03/02 01:12:46;;;;;;;45.37;25.53;;;8.00;99.90;;;;;;5078297;28;20689;-68
2022/03/02 01:15:13;;;;;;;43.37;25.97;;;8.00;99.90;;;;;;5078325;28;20266;-68
2022/03/02 01:17:39;;;;;;;43.60;27.20;;;8.00;99.90;;;;;;5010666;28;20697;-69
2022/03/02 01:20:07;;;;;;;42.67;25.67;;;8.00;99.90;;;;;;5010246;28;20175;-69
2022/03/02 01:22:33;;;;;;;41.50;26.83;;;8.00;99.90;;;;;;5010686;28;20175;-69
2022/03/02 01:24:58;;;;;;;50.70;28.23;;;8.00;99.90;;;;;;5010561;28;20529;-69
2022/03/02 01:27:24;;;;;;;51.87;27.80;;;7.90;99.90;;;;;;5011004;28;20634;-68
2022/03/02 01:29:53;;;;;;;45.00;27.13;;;7.80;99.90;;;;;;5010705;28;20236;-68
2022/03/02 01:32:20;;;;;;;50.17;27.57;;;7.70;99.90;;;;;;5010529;28;20206;-68
2022/03/02 01:34:46;;;;;;;40.47;27.17;;;7.70;99.90;;;;;;5009995;28;20178;-69
2022/03/02 01:37:11;;;;;;;40.43;26.37;;;7.80;99.90;;;;;;5010500;28;20530;-69
2022/03/02 01:39:37;;;;;;;39.40;26.67;;;7.80;99.90;;;;;;5010348;28;20173;-69
2022/03/02 01:42:05;;;;;;;44.13;27.03;;;7.90;99.90;;;;;;5010608;28;20216;-68
2022/03/02 01:44:31;;;;;;;40.53;26.90;;;7.90;99.90;;;;;;5010342;28;20206;-68
2022/03/02 01:46:57;;;;;;;44.43;26.93;;;8.00;99.90;;;;;;5010404;28;20186;-67
2022/03/02 01:49:23;;;;;;;41.53;27.80;;;8.10;99.90;;;;;;5010055;28;20641;-69
2022/03/02 01:51:48;;;;;;;42.73;27.37;;;8.10;99.90;;;;;;5010469;28;20603;-69
2022/03/02 01:54:14;;;;;;;42.30;28.00;;;8.00;99.90;;;;;;5009846;28;20225;-69
2022/03/02 01:56:40;;;;;;;45.67;28.23;;;8.00;99.90;;;;;;5010034;28;20197;-68
2022/03/02 01:59:06;;;;;;;40.30;27.17;;;7.80;99.90;;;;;;5010353;28;20178;-69
2022/03/02 02:01:32;;;;;;;44.33;28.07;;;7.80;99.90;;;;;;5010030;28;20198;-68
2022/03/02 02:03:59;;;;;;;37.60;26.20;;;7.70;99.90;;;;;;5009790;28;20167;-68
2022/03/02 02:06:24;;;;;;;38.03;25.93;;;7.60;99.90;;;;;;5010009;28;20232;-67
2022/03/02 02:08:52;;;;;;;40.70;26.77;;;7.60;99.90;;;;;;5009807;28;20171;-69
2022/03/02 02:11:18;;;;;;;41.20;26.90;;;7.60;99.90;;;;;;5009904;28;20269;-68
2022/03/02 02:13:44;;;;;;;45.00;27.13;;;7.60;99.90;;;;;;5010089;28;20278;-69
2022/03/02 02:16:09;;;;;;;44.27;27.63;;;7.70;99.90;;;;;;5077468;28;20541;-68
2022/03/02 02:18:35;;;;;;;47.30;29.13;;;7.70;99.90;;;;;;5009974;28;20535;-69
2022/03/02 02:21:06;;;;;;;46.30;27.30;;;7.70;99.90;;;;;;5010232;28;20224;-70
2022/03/02 02:23:31;;;;;;;43.93;26.73;;;7.70;99.90;;;;;;5009919;28;20163;-68
2022/03/02 02:25:57;;;;;;;46.77;27.27;;;7.70;99.90;;;;;;5009799;28;20178;-69
2022/03/02 02:28:24;;;;;;;45.93;28.07;;;7.80;99.90;;;;;;5010081;28;20225;-69
2022/03/02 02:30:53;;;;;;;45.33;27.73;;;7.80;99.90;;;;;;5009806;28;20262;-69
2022/03/02 02:33:18;;;;;;;46.40;27.43;;;7.80;99.90;;;;;;5009545;28;20214;-69
2022/03/02 02:35:44;;;;;;;44.30;27.43;;;7.70;99.90;;;;;;5010561;28;20528;-68
2022/03/02 02:38:10;;;;;;;43.43;27.33;;;7.80;99.90;;;;;;5013212;28;20190;-69
2022/03/02 02:40:36;;;;;;;43.13;27.33;;;7.80;99.90;;;;;;5013108;28;20209;-69
2022/03/02 02:43:02;;;;;;;42.23;27.57;;;7.90;99.90;;;;;;5013379;28;20215;-69
2022/03/02 02:45:28;;;;;;;42.53;26.80;;;7.90;99.90;;;;;;5012964;28;20198;-68
2022/03/02 02:47:55;;;;;;;46.00;26.17;;;7.90;99.90;;;;;;5012657;28;20175;-69
2022/03/02 02:50:26;;;;;;;44.63;27.17;;;7.90;99.90;;;;;;5012829;28;20665;-68
2022/03/02 02:52:53;;;;;;;44.33;27.60;;;7.90;99.90;;;;;;5013041;28;20237;-70
2022/03/02 02:55:21;;;;;;;42.47;26.63;;;7.70;99.90;;;;;;5012972;28;20167;-68
2022/03/02 02:57:46;;;;;;;44.77;26.23;;;7.70;99.90;;;;;;5013033;28;20171;-68
2022/03/02 03:00:15;;;;;;;42.57;26.60;;;7.70;99.90;;;;;;5012884;28;20705;-68
2022/03/02 03:02:41;;;;;;;44.00;27.20;;;7.70;99.90;;;;;;5012475;28;20255;-69
2022/03/02 03:05:14;;;;;;;38.20;25.50;;;7.70;99.90;;;;;;5012744;28;20174;-67
2022/03/02 03:07:40;;;;;;;36.00;25.10;;;7.70;99.90;;;;;;5012749;28;20201;-68
2022/03/02 03:10:07;;;;;;;40.80;27.60;;;7.70;99.90;;;;;;5080569;28;20167;-68
2022/03/02 03:12:34;;;;;;;40.97;26.37;;;7.70;99.90;;;;;;5012732;28;20218;-68
2022/03/02 03:15:00;;;;;;;41.57;26.40;;;7.70;99.90;;;;;;5012234;28;20182;-68
2022/03/02 03:17:25;;;;;;;38.80;27.27;;;7.70;99.90;;;;;;5012571;28;20170;-69
2022/03/02 03:19:51;;;;;;;40.77;26.70;;;7.60;99.90;;;;;;5012793;28;20178;-68
2022/03/02 03:22:17;;;;;;;40.30;26.37;;;7.60;99.90;;;;;;5012653;28;20175;-69
2022/03/02 03:24:42;;;;;;;42.17;25.57;;;7.60;99.90;;;;;;5012400;28;20265;-69
2022/03/02 03:27:08;;;;;;;40.13;25.03;;;7.60;99.90;;;;;;5012358;28;20171;-68
2022/03/02 03:29:33;;;;;;;39.63;25.33;;;7.50;99.90;;;;;;5011998;28;20167;-68
2022/03/02 03:31:59;;;;;;;39.90;25.10;;;7.50;99.90;;;;;;5012271;28;20216;-68
2022/03/02 03:34:25;;;;;;;35.57;25.03;;;7.40;99.90;;;;;;5012429;28;20178;-68
2022/03/02 03:36:52;;;;;;;41.63;25.97;;;7.40;99.90;;;;;;5012513;28;20174;-69
2022/03/02 03:39:18;;;;;;;34.40;24.97;;;7.30;99.90;;;;;;5012116;28;20178;-68
2022/03/02 03:41:44;;;;;;;35.40;24.53;;;7.40;99.90;;;;;;5012054;28;20179;-69
2022/03/02 03:44:10;;;;;;;43.73;25.90;;;7.30;99.90;;;;;;5011804;28;20790;-68
2022/03/02 03:46:35;;;;;;;37.57;25.60;;;7.30;99.90;;;;;;5011353;28;20186;-69
2022/03/02 03:49:01;;;;;;;37.37;25.03;;;7.30;99.90;;;;;;5011679;28;20668;-68
2022/03/02 03:51:26;;;;;;;41.03;25.30;;;7.30;99.90;;;;;;5012016;28;20179;-68
2022/03/02 03:53:52;;;;;;;37.17;25.33;;;7.30;99.90;;;;;;5011628;28;20736;-68
2022/03/02 03:56:18;;;;;;;45.50;26.57;;;7.30;99.90;;;;;;5011763;28;20166;-68
2022/03/02 03:58:44;;;;;;;46.97;26.17;;;7.40;99.90;;;;;;5011493;28;20182;-69
2022/03/02 04:01:10;;;;;;;38.83;25.63;;;7.40;99.90;;;;;;5011829;28;20210;-68
2022/03/02 04:03:36;;;;;;;40.20;25.37;;;7.40;99.90;;;;;;5012062;28;20227;-68
2022/03/02 04:06:02;;;;;;;39.47;25.93;;;7.40;99.90;;;;;;5011733;28;20716;-68
2022/03/02 04:08:27;;;;;;;43.73;25.27;;;7.40;99.90;;;;;;5011924;28;20173;-68
2022/03/02 04:10:53;;;;;;;40.23;25.50;;;7.40;99.90;;;;;;5011483;28;20289;-69
2022/03/02 04:13:19;;;;;;;38.40;25.53;;;7.40;99.90;;;;;;5011403;28;20670;-68
2022/03/02 04:15:45;;;;;;;38.50;25.70;;;7.50;99.90;;;;;;5011610;28;20216;-69
2022/03/02 04:18:11;;;;;;;37.27;24.87;;;7.30;99.90;;;;;;5011538;28;20661;-68
2022/03/02 04:20:38;;;;;;;40.63;25.67;;;7.00;99.90;;;;;;5011609;28;20680;-68
2022/03/02 04:23:05;;;;;;;40.13;26.20;;;7.00;99.90;;;;;;5011577;28;20186;-68
2022/03/02 04:25:31;;;;;;;46.53;26.00;;;7.10;99.90;;;;;;5011313;28;20181;-68
2022/03/02 04:27:57;;;;;;;41.73;26.77;;;7.10;99.90;;;;;;5010924;28;20170;-70
2022/03/02 04:30:23;;;;;;;44.20;26.07;;;7.20;99.90;;;;;;5011337;28;20166;-69
2022/03/02 04:32:48;;;;;;;38.83;25.53;;;7.20;99.90;;;;;;5011507;28;20562;-69
2022/03/02 04:35:14;;;;;;;42.57;26.60;;;7.10;99.90;;;;;;5078715;28;20304;-68
2022/03/02 04:37:41;;;;;;;39.80;26.20;;;7.10;99.90;;;;;;5011519;28;20255;-68
2022/03/02 04:40:10;;;;;;;37.57;25.27;;;7.20;99.90;;;;;;5011328;28;20175;-68
2022/03/02 04:42:36;;;;;;;46.00;26.60;;;7.20;99.90;;;;;;5010572;28;20179;-68
2022/03/02 04:45:02;;;;;;;43.90;25.10;;;7.30;99.90;;;;;;5010533;28;20781;-69
2022/03/02 04:47:28;;;;;;;39.20;25.83;;;7.30;99.90;;;;;;5011330;28;20232;-68
2022/03/02 04:49:54;;;;;;;40.90;25.97;;;7.20;99.90;;;;;;5011004;28;20171;-70
2022/03/02 04:52:19;;;;;;;39.73;25.50;;;7.20;99.90;;;;;;5078514;28;20211;-69
2022/03/02 04:57:29;;;;;;;40.63;24.77;;;6.80;99.90;;;;;;5010475;28;20209;-70
2022/03/02 04:59:55;;;;;;;43.20;24.80;;;6.70;99.90;;;;;;5010647;28;20220;-69
2022/03/02 05:02:21;;;;;;;40.90;25.93;;;6.60;99.90;;;;;;5010929;28;20166;-68
2022/03/02 05:04:49;;;;;;;44.50;25.10;;;6.60;99.90;;;;;;5010453;28;20258;-69
2022/03/02 05:07:15;;;;;;;38.97;24.73;;;6.60;99.90;;;;;;5010570;28;20184;-70
2022/03/02 05:09:41;;;;;;;47.87;25.43;;;6.70;99.90;;;;;;5010734;28;20183;-69
2022/03/02 05:12:07;;;;;;;41.63;25.27;;;6.50;99.90;;;;;;5009917;28;20202;-68
2022/03/02 05:14:33;;;;;;;44.00;25.50;;;6.60;99.90;;;;;;5010447;28;20212;-68
2022/03/02 05:16:59;;;;;;;37.87;25.27;;;6.60;99.90;;;;;;5010925;28;20179;-68
2022/03/02 05:19:25;;;;;;;40.97;24.37;;;6.50;99.90;;;;;;5077832;28;20179;-68
2022/03/02 05:21:51;;;;;;;45.60;26.10;;;6.50;99.90;;;;;;5010516;28;20159;-69
2022/03/02 05:24:17;;;;;;;38.63;25.07;;;6.50;99.90;;;;;;5009847;28;20511;-68
2022/03/02 05:26:42;;;;;;;38.87;25.40;;;6.40;99.90;;;;;;5009467;28;20189;-69
2022/03/02 05:29:08;;;;;;;44.67;24.97;;;6.40;99.90;;;;;;5010570;28;20171;-69
2022/03/02 05:31:34;;;;;;;38.67;24.47;;;6.40;99.90;;;;;;5010180;28;20173;-69
2022/03/02 05:34:00;;;;;;;44.20;24.70;;;6.50;99.90;;;;;;5009993;28;20263;-69
2022/03/02 05:36:27;;;;;;;40.90;24.87;;;6.50;99.90;;;;;;5010164;28;20245;-68
2022/03/02 05:38:53;;;;;;;40.20;24.30;;;6.50;99.90;;;;;;5010261;28;20171;-68
2022/03/02 05:41:20;;;;;;;43.07;24.60;;;6.30;99.90;;;;;;5009480;28;20185;-69
2022/03/02 05:43:46;;;;;;;40.43;25.33;;;6.30;99.90;;;;;;5010045;28;20194;-68
2022/03/02 05:46:12;;;;;;;37.43;24.77;;;6.30;99.90;;;;;;5009833;28;20179;-69
2022/03/02 05:48:37;;;;;;;37.87;24.07;;;6.30;99.90;;;;;;5010231;28;20179;-69
2022/03/02 05:51:04;;;;;;;35.67;23.50;;;6.30;99.90;;;;;;5010068;28;20542;-68
2022/03/02 05:53:29;;;;;;;41.43;25.00;;;6.20;99.90;;;;;;5009446;28;20329;-68
2022/03/02 05:55:55;;;;;;;41.07;24.40;;;6.10;99.90;;;;;;5009003;28;20265;-69
2022/03/02 05:58:21;;;;;;;43.03;24.43;;;6.10;99.90;;;;;;5009766;28;20183;-68
2022/03/02 06:00:46;;;;;;;39.27;23.80;;;6.10;99.90;;;;;;5009728;28;20174;-68
2022/03/02 06:03:13;;;;;;;37.27;24.17;;;6.00;99.90;;;;;;5009999;28;20182;-68
2022/03/02 06:05:39;;;;;;;43.87;24.17;;;5.90;99.90;;;;;;5009602;28;20179;-68
2022/03/02 06:08:07;;;;;;;39.40;24.43;;;5.70;99.90;;;;;;5009733;28;20174;-68
2022/03/02 06:10:34;;;;;;;40.80;25.00;;;5.60;99.90;;;;;;5009648;28;20246;-68
2022/03/02 06:13:00;;;;;;;38.47;23.57;;;5.60;99.90;;;;;;5013005;28;20309;-68
2022/03/02 06:15:26;;;;;;;39.90;23.93;;;5.70;99.90;;;;;;5013315;28;20185;-68
2022/03/02 06:17:52;;;;;;;40.03;24.53;;;5.70;99.90;;;;;;5012787;28;20580;-68
2022/03/02 06:20:18;;;;;;;36.73;22.77;;;5.80;99.90;;;;;;5012412;28;20475;-68
2022/03/02 06:22:44;;;;;;;42.27;24.27;;;5.80;99.90;;;;;;5097736;28;20206;-69
2022/03/02 06:25:10;;;;;;;43.60;24.47;;;5.80;99.90;;;;;;5012029;28;20178;-69
2022/03/02 06:27:36;;;;;;;38.30;23.50;;;5.90;99.90;;;;;;5012560;28;20655;-68
2022/03/02 06:30:04;;;;;;;38.47;23.30;;;5.80;99.90;;;;;;5012410;28;20637;-68
2022/03/02 06:32:30;;;;;;;38.13;23.50;;;5.70;99.90;;;;;;5013098;28;20298;-69
2022/03/02 06:34:56;;;;;;;40.97;24.63;;;5.70;99.90;;;;;;5012383;28;20167;-68
2022/03/02 06:37:23;;;;;;;40.20;24.53;;;5.60;99.90;;;;;;5012611;28;20190;-68
2022/03/02 06:39:49;;;;;;;38.80;24.50;;;5.70;99.90;;;;;;5012079;28;20179;-67
2022/03/02 06:42:21;;;;;;;37.90;24.73;;;5.70;99.90;;;;;;5012040;28;20175;-68
2022/03/02 06:45:04;;;;;;;38.13;23.37;;;5.80;99.90;;;;;;5012905;28;20214;-69
2022/03/02 06:47:36;;;;;;;40.20;24.87;;;5.80;99.90;;;;;;5012258;28;20182;-69
2022/03/02 06:50:04;;;;;;;43.97;24.90;;;5.90;99.90;;;;;;5011881;28;20235;-68
2022/03/02 06:52:37;;;;;;;38.97;24.93;;;6.00;99.90;;;;;;5010226;28;20206;-68
2022/03/02 06:55:11;;;;;;;34.47;23.00;;;6.00;99.90;;;;;;5079755;28;20178;-69
2022/03/02 06:57:37;;;;;;;40.90;23.77;;;6.00;99.90;;;;;;5011806;28;20182;-68
2022/03/02 07:00:10;;;;;;;33.60;22.63;;;5.90;99.90;;;;;;5011855;28;20194;-69
2022/03/02 07:02:42;;;;;;;34.80;22.73;;;5.90;99.90;;;;;;5011840;28;20183;-67
2022/03/02 07:05:08;;;;;;;40.07;24.53;;;6.10;99.90;;;;;;5011562;28;20197;-68
2022/03/02 07:07:34;;;;;;;37.93;22.57;;;6.20;99.90;;;;;;5011885;28;20189;-69
2022/03/02 07:10:00;;;;;;;34.33;22.77;;;6.30;99.90;;;;;;5011958;28;20179;-68
2022/03/02 07:12:27;;;;;;;37.27;21.70;;;6.40;99.90;;;;;;5012035;28;20654;-68
2022/03/02 07:14:54;;;;;;;39.03;22.20;;;6.40;99.90;;;;;;5011611;28;20316;-68
2022/03/02 07:17:23;;;;;;;33.27;21.23;;;6.60;99.90;;;;;;5011559;28;20700;-69
2022/03/02 07:19:50;;;;;;;36.03;21.80;;;6.80;99.90;;;;;;5011713;28;20219;-70
2022/03/02 07:22:19;;;;;;;35.20;21.30;;;7.00;99.90;;;;;;5011196;28;20490;-70
2022/03/02 07:24:53;;;;;;;33.20;22.63;;;7.10;99.90;;;;;;5011309;28;20201;-69
2022/03/02 07:27:19;;;;;;;30.80;20.73;;;7.30;99.90;;;;;;5011189;28;20350;-68
2022/03/02 07:29:49;;;;;;;28.37;20.07;;;7.50;99.90;;;;;;5011742;28;20174;-69
2022/03/02 07:32:21;;;;;;;33.57;22.17;;;7.70;99.90;;;;;;5011690;28;20805;-69
2022/03/02 07:34:54;;;;;;;37.00;22.13;;;7.80;99.90;;;;;;5078212;28;20717;-69
2022/03/02 07:37:21;;;;;;;33.47;21.47;;;8.00;99.90;;;;;;5010542;28;20277;-69
2022/03/02 07:39:47;;;;;;;32.20;20.60;;;8.20;99.90;;;;;;5011695;28;20223;-69
2022/03/02 07:42:13;;;;;;;29.87;21.43;;;8.10;99.90;;;;;;5010671;28;20240;-69
2022/03/02 07:44:39;;;;;;;29.40;19.80;;;8.30;99.90;;;;;;5011039;28;20195;-69
2022/03/02 07:47:04;;;;;;;36.93;21.83;;;8.40;99.90;;;;;;5011267;28;20179;-69
2022/03/02 07:49:30;;;;;;;31.97;21.13;;;8.80;99.90;;;;;;5011121;28;20660;-69
2022/03/02 07:51:58;;;;;;;37.73;21.13;;;9.40;99.10;;;;;;5010682;28;20244;-70
2022/03/02 07:54:28;;;;;;;31.77;20.50;;;10.10;97.10;;;;;;5010361;28;20257;-68
2022/03/02 07:56:55;;;;;;;31.47;21.27;;;11.20;95.40;;;;;;5011074;28;20170;-71
2022/03/02 07:59:21;;;;;;;33.03;20.70;;;12.40;91.70;;;;;;5011196;28;20712;-69
2022/03/02 08:01:47;;;;;;;32.87;20.60;;;13.20;85.80;;;;;;5010837;28;20281;-70
2022/03/02 08:04:14;;;;;;;32.27;19.60;;;13.40;82.50;;;;;;5010894;28;20265;-70
2022/03/02 08:06:41;;;;;;;26.67;20.07;;;14.20;99.90;;;;;;5010086;28;20186;-70
2022/03/02 08:09:09;;;;;;;26.17;19.73;;;14.40;99.90;;;;;;5011139;28;20186;-71
2022/03/02 08:11:37;;;;;;;29.77;19.77;;;14.00;99.90;;;;;;5010091;28;20183;-71
2022/03/02 08:14:04;;;;;;;28.53;19.67;;;14.00;99.90;;;;;;5011610;28;20167;-72
2022/03/02 08:16:31;;;;;;;27.80;19.77;;;13.40;99.90;;;;;;5011159;28;20159;-70
2022/03/02 08:18:58;;;;;;;27.87;19.20;;;12.90;99.90;;;;;;5078202;28;20225;-70
2022/03/02 08:21:28;;;;;;;27.93;19.50;;;12.10;99.90;;;;;;5010184;28;20171;-70
2022/03/02 08:23:56;;;;;;;31.37;20.20;;;11.90;99.90;;;;;;5010144;28;20228;-70
2022/03/02 08:26:24;;;;;;;29.07;21.27;;;11.90;99.90;;;;;;5010424;28;20179;-70
2022/03/02 08:28:54;;;;;;;40.10;23.10;;;11.60;1.00;;;;;;5011457;28;20175;-72
2022/03/02 08:31:19;;;;;;;30.07;20.50;;;11.40;1.00;;;;;;5010873;28;20169;-70
2022/03/02 08:33:45;;;;;;;33.13;20.67;;;10.80;1.00;;;;;;5009358;28;20301;-70
2022/03/02 08:36:12;;;;;;;37.93;21.50;;;10.60;91.30;;;;;;5010250;28;20167;-70
2022/03/02 08:38:42;;;;;;;32.20;22.37;;;10.40;92.90;;;;;;5011045;28;20198;-69
2022/03/02 08:41:10;;;;;;;30.73;21.30;;;10.30;93.20;;;;;;5010060;28;20186;-69
2022/03/02 08:43:36;;;;;;;24.70;17.07;;;10.50;92.10;;;;;;5010080;28;20195;-70
2022/03/02 08:46:04;;;;;;;22.73;17.10;;;10.50;1.00;;;;;;5010575;28;20630;-70
2022/03/02 08:48:30;;;;;;;26.43;18.13;;;10.40;99.90;;;;;;5009618;28;20171;-70
2022/03/02 08:50:59;;;;;;;24.73;16.83;;;10.40;99.90;;;;;;5009800;28;20185;-70
2022/03/02 08:53:26;;;;;;;27.03;17.77;;;10.40;99.90;;;;;;5009730;28;20222;-70
2022/03/02 08:55:53;;;;;;;28.77;20.37;;;10.40;99.90;;;;;;5009927;28;20198;-70
2022/03/02 08:58:19;;;;;;;29.50;19.70;;;10.60;1.00;;;;;;5010111;28;20265;-70
2022/03/02 09:00:45;;;;;;;28.33;20.83;;;11.00;1.00;;;;;;5009515;28;20174;-70
2022/03/02 09:03:15;;;;;;;28.70;20.00;;;11.40;1.00;;;;;;5009522;28;20251;-71
2022/03/02 09:05:41;;;;;;;30.17;19.77;;;11.60;1.00;;;;;;5009927;28;20175;-71
2022/03/02 09:08:08;;;;;;;29.40;20.00;;;11.90;99.90;;;;;;5010273;28;20198;-70
2022/03/02 09:10:37;;;;;;;31.63;19.07;;;11.30;99.90;;;;;;5009132;28;20740;-70
2022/03/02 09:13:03;;;;;;;28.40;20.17;;;10.80;1.00;;;;;;5010160;28;20285;-69
2022/03/02 09:15:29;;;;;;;29.30;19.33;;;10.40;1.00;;;;;;5077535;28;20170;-70
2022/03/02 09:17:55;;;;;;;27.37;19.33;;;10.30;1.00;;;;;;5009376;28;20591;-69
2022/03/02 09:20:23;;;;;;;30.27;18.33;;;10.40;1.00;;;;;;5009540;28;20174;-71
2022/03/02 09:22:51;;;;;;;28.07;18.80;;;10.60;1.00;;;;;;5009805;28;20220;-70
2022/03/02 09:25:17;;;;;;;24.43;17.93;;;10.50;1.00;;;;;;5010136;28;20677;-70
2022/03/02 09:27:44;;;;;;;24.63;17.97;;;10.50;1.00;;;;;;5009580;28;20175;-69
2022/03/02 09:30:11;;;;;;;29.60;17.87;;;10.60;1.00;;;;;;5008970;28;20258;-70
2022/03/02 09:32:40;;;;;;;24.53;16.73;;;10.50;1.00;;;;;;5009098;28;20210;-71
2022/03/02 09:35:10;;;;;;;25.70;17.23;;;10.20;1.00;;;;;;5009659;28;20171;-70
2022/03/02 09:37:40;;;;;;;23.57;16.40;;;10.10;1.00;;;;;;5010076;28;20175;-69
2022/03/02 09:40:06;;;;;;;26.07;16.30;;;10.00;1.00;;;;;;5009275;28;20634;-70
2022/03/02 09:42:45;;;;;;;26.33;16.47;;;10.00;1.00;;;;;;5077444;28;20254;-69
2022/03/02 09:45:11;;;;;;;24.40;16.93;;;9.80;1.00;;;;;;5011024;28;20678;-69
2022/03/02 09:47:56;;;;;;;24.93;16.13;;;10.00;1.00;;;;;;5012014;28;20486;-69
2022/03/02 09:50:23;;;;;;;30.87;17.23;;;10.40;1.00;;;;;;5012869;28;20171;-70
2022/03/02 09:52:51;;;;;;;26.27;17.20;;;10.60;1.00;;;;;;5013215;28;20237;-70
2022/03/02 09:55:21;;;;;;;21.97;16.17;;;11.00;99.90;;;;;;5012712;28;20174;-70
2022/03/02 09:57:52;;;;;;;23.70;16.07;;;11.00;99.90;;;;;;5013056;28;20182;-71
2022/03/02 10:00:21;;;;;;;21.73;15.27;;;10.90;99.90;;;;;;5012475;28;20174;-69
2022/03/02 10:02:48;;;;;;;27.03;15.57;;;10.80;99.90;;;;;;5012913;28;20261;-70
2022/03/02 10:05:16;;;;;;;23.03;16.03;;;10.70;99.90;;;;;;5012812;28;20179;-70
2022/03/02 10:07:51;;;;;;;22.30;15.17;;;10.70;99.90;;;;;;5013100;28;20171;-70
2022/03/02 10:10:23;;;;;;;21.97;15.80;;;11.00;99.90;;;;;;5013131;28;20174;-70
2022/03/02 10:12:54;;;;;;;22.17;15.30;;;11.10;99.90;;;;;;5012949;28;20214;-70
2022/03/02 10:15:20;;;;;;;23.47;14.97;;;11.30;99.90;;;;;;5012747;28;20177;-71
2022/03/02 10:17:51;;;;;;;20.17;15.20;;;12.00;99.90;;;;;;5012335;28;20178;-69
2022/03/02 10:20:23;;;;;;;23.47;15.23;;;12.30;99.90;;;;;;5012442;28;20158;-71
2022/03/02 10:22:58;;;;;;;22.37;15.50;;;12.30;99.90;;;;;;5012398;28;20209;-69
2022/03/02 10:25:35;;;;;;;28.33;17.27;;;12.50;99.90;;;;;;5013004;28;20178;-70
2022/03/02 10:28:05;;;;;;;23.53;16.97;;;12.70;99.90;;;;;;5012504;28;20235;-69
2022/03/02 10:30:40;;;;;;;20.03;13.87;;;12.60;99.90;;;;;;5011647;28;20186;-71
2022/03/02 10:33:26;;;;;;;22.00;15.77;;;11.90;99.90;;;;;;5012179;28;20278;-70
2022/03/02 10:36:03;;;;;;;20.40;14.40;;;12.10;99.90;;;;;;5013118;28;20209;-70
2022/03/02 10:38:48;;;;;;;21.20;14.30;;;12.60;99.90;;;;;;5011656;28;20466;-71
2022/03/02 10:41:17;;;;;;;16.70;13.70;;;12.60;99.90;;;;;;5011799;28;20186;-70
2022/03/02 10:44:16;;;;;;;20.00;14.27;;;12.60;99.90;;;;;;5012476;28;20206;-71
2022/03/02 10:46:49;;;;;;;18.10;14.33;;;13.40;99.90;;;;;;5011547;28;20199;-70
2022/03/02 10:49:22;;;;;;;20.20;14.63;;;13.90;99.90;;;;;;5012374;28;20174;-71
2022/03/02 10:51:48;;;;;;;19.23;14.13;;;14.30;99.90;;;;;;5012063;28;20236;-70
2022/03/02 10:54:17;;;;;;;21.23;14.83;;;14.00;99.90;;;;;;5012337;28;20231;-70
2022/03/02 10:56:44;;;;;;;22.17;14.97;;;13.40;99.90;;;;;;5011313;28;20194;-70
2022/03/02 10:59:17;;;;;;;20.50;15.13;;;13.00;99.90;;;;;;5012231;28;20574;-70
2022/03/02 11:01:44;;;;;;;23.63;15.30;;;12.70;99.90;;;;;;5011499;28;20163;-69
2022/03/02 11:04:11;;;;;;;20.53;14.50;;;12.90;99.90;;;;;;5011883;28;20208;-70
2022/03/02 11:06:38;;;;;;;19.40;13.70;;;12.70;99.90;;;;;;5011978;28;20172;-70
2022/03/02 11:09:04;;;;;;;20.77;15.37;;;12.70;99.90;;;;;;5012222;28;20198;-70
2022/03/02 11:11:33;;;;;;;25.33;17.67;;;12.50;99.90;;;;;;5011439;28;20561;-69
2022/03/02 11:13:59;;;;;;;20.83;15.60;;;13.10;99.90;;;;;;5011442;28;20263;-70
2022/03/02 11:16:25;;;;;;;19.80;14.63;;;13.50;99.90;;;;;;5011338;28;20178;-70
2022/03/02 11:18:52;;;;;;;19.67;15.30;;;13.80;99.90;;;;;;5011845;28;20183;-71
2022/03/02 11:21:21;;;;;;;20.77;15.03;;;13.60;99.90;;;;;;5012017;28;20170;-71
2022/03/02 11:24:00;;;;;;;20.43;15.97;;;13.70;99.90;;;;;;5011909;28;20661;-71
2022/03/02 11:26:38;;;;;;;24.67;16.53;;;13.50;99.90;;;;;;5011032;28;20204;-70
2022/03/02 11:29:16;;;;;;;22.03;16.30;;;13.90;99.90;;;;;;5011624;28;20178;-71
2022/03/02 11:31:46;;;;;;;20.63;15.67;;;13.50;99.90;;;;;;5011247;28;20261;-70
2022/03/02 11:34:25;;;;;;;23.00;15.83;;;13.40;99.90;;;;;;5011426;28;20227;-70
2022/03/02 11:36:53;;;;;;;23.37;15.60;;;13.50;99.90;;;;;;5011366;28;20206;-70
2022/03/02 11:39:23;;;;;;;21.57;15.37;;;13.80;99.90;;;;;;5011793;28;20259;-71
2022/03/02 11:41:53;;;;;;;23.20;16.80;;;13.60;99.90;;;;;;5011043;28;20223;-71
2022/03/02 11:44:39;;;;;;;20.97;15.43;;;13.50;99.90;;;;;;5011292;28;20190;-70
2022/03/02 11:47:06;;;;;;;19.67;14.77;;;13.50;99.90;;;;;;5010877;28;20170;-70
2022/03/02 11:49:41;;;;;;;25.57;15.80;;;13.20;99.90;;;;;;5010720;28;20253;-70
2022/03/02 11:52:09;;;;;;;22.00;15.57;;;12.60;99.90;;;;;;5010990;28;20653;-70
2022/03/02 11:54:56;;;;;;;20.33;14.30;;;12.90;99.90;;;;;;5010788;28;20223;-70
2022/03/02 11:57:24;;;;;;;19.47;13.97;;;12.70;99.90;;;;;;5010794;28;20170;-71
2022/03/02 12:00:07;;;;;;;20.03;14.17;;;12.60;99.90;;;;;;5010730;28;20174;-69
2022/03/02 12:02:49;;;;;;;22.33;14.47;;;12.20;99.90;;;;;;5010412;28;20167;-69
2022/03/02 12:05:20;;;;;;;23.90;16.73;;;12.00;99.90;;;;;;5011609;28;20661;-69
2022/03/02 12:07:48;;;;;;;19.60;14.27;;;12.00;99.90;;;;;;5010623;28;20174;-70
2022/03/02 12:10:25;;;;;;;19.30;15.17;;;12.10;99.90;;;;;;5010438;28;20255;-69
2022/03/02 12:12:52;;;;;;;20.33;14.13;;;12.10;99.90;;;;;;5010172;28;20293;-70
2022/03/02 12:15:19;;;;;;;21.73;14.90;;;12.00;99.90;;;;;;5011329;28;20171;-69
2022/03/02 12:17:46;;;;;;;23.47;14.63;;;12.20;99.90;;;;;;5011212;28;20171;-69
2022/03/02 12:20:24;;;;;;;22.97;16.67;;;12.00;99.90;;;;;;5010914;28;20171;-69
2022/03/02 12:22:54;;;;;;;23.37;15.47;;;11.80;99.90;;;;;;5010682;28;20633;-69
2022/03/02 12:25:23;;;;;;;22.03;14.17;;;11.90;99.90;;;;;;5009699;28;20171;-68
2022/03/02 12:27:57;;;;;;;24.17;15.60;;;11.80;99.90;;;;;;5009976;28;20509;-69
2022/03/02 12:30:23;;;;;;;23.40;15.00;;;11.70;99.90;;;;;;5077967;28;20529;-69
2022/03/02 12:32:52;;;;;;;24.83;14.90;;;11.80;99.90;;;;;;5009524;28;20238;-69
2022/03/02 12:35:22;;;;;;;23.23;15.13;;;11.90;99.90;;;;;;5010964;28;20194;-68
2022/03/02 12:37:48;;;;;;;20.23;13.20;;;12.10;99.90;;;;;;5010215;28;20178;-69
2022/03/02 12:40:14;;;;;;;18.90;13.67;;;11.70;99.90;;;;;;5009954;28;20178;-69